Time;durP1;ratioP1;P1;durP2;ratioP2;P2;SDS_P1;SDS_P2;PMS_P1;PMS_P2;Temp;Humidity;BMP_temperature;BMP_pressure;BME280_temperature;BME280_humidity;BME280_pressure;Samples;Min_cycle;Max_cycle;Signal;HPM_P1;HPM_P2
2021/03/12 00:02:39;;;;;;;1.57;0.60;;;8.90;1.00;;;;;;5120281;27;20473;-83
2021/03/12 00:05:27;;;;;;;1.00;0.80;;;9.20;1.00;;;;;;5128626;27;20449;-81
2021/03/12 00:08:15;;;;;;;1.23;0.60;;;9.30;1.00;;;;;;5130582;27;20747;-78
2021/03/12 00:11:03;;;;;;;2.00;0.60;;;9.40;99.90;;;;;;5127378;27;20952;-80
2021/03/12 00:13:51;;;;;;;1.37;0.63;;;9.50;99.90;;;;;;5135026;27;20991;-81
2021/03/12 00:16:39;;;;;;;1.30;0.70;;;9.40;99.90;;;;;;5122460;27;21004;-84
2021/03/12 00:19:27;;;;;;;1.03;0.60;;;9.10;99.90;;;;;;5125738;27;20890;-85
2021/03/12 00:22:14;;;;;;;1.27;0.60;;;9.10;99.90;;;;;;5121472;27;20462;-81
2021/03/12 00:25:02;;;;;;;1.30;0.50;;;9.20;99.90;;;;;;5125001;27;20477;-79
2021/03/12 00:27:49;;;;;;;1.03;0.50;;;9.10;99.90;;;;;;5133634;27;20471;-81
2021/03/12 00:30:38;;;;;;;1.47;0.70;;;9.00;99.90;;;;;;5123232;27;20484;-87
2021/03/12 00:33:28;;;;;;;1.33;0.70;;;9.00;99.90;;;;;;5126511;27;20772;-79
2021/03/12 00:36:15;;;;;;;1.93;0.60;;;9.00;99.90;;;;;;5127129;27;20460;-81
2021/03/12 00:39:03;;;;;;;0.70;0.50;;;9.00;99.90;;;;;;5116405;27;20488;-79
2021/03/12 00:41:52;;;;;;;2.83;0.80;;;9.00;99.90;;;;;;5126573;27;20460;-79
2021/03/12 00:44:40;;;;;;;1.60;0.60;;;9.00;99.90;;;;;;5131709;27;21175;-81
2021/03/12 00:47:28;;;;;;;2.80;0.80;;;9.20;99.90;;;;;;5126985;27;20480;-81
2021/03/12 00:50:21;;;;;;;2.10;0.80;;;9.20;99.90;;;;;;5120999;27;20549;-80
2021/03/12 00:53:09;;;;;;;0.70;0.60;;;9.20;99.90;;;;;;5122526;27;20452;-82
2021/03/12 00:55:56;;;;;;;0.80;0.70;;;9.10;99.90;;;;;;5119282;27;20466;-82
2021/03/12 00:58:44;;;;;;;2.50;1.10;;;9.30;99.90;;;;;;5118704;27;20471;-84
2021/03/12 01:01:31;;;;;;;1.43;0.60;;;9.50;99.90;;;;;;5122831;27;20452;-82
2021/03/12 01:04:19;;;;;;;1.73;0.70;;;9.60;99.90;;;;;;5122014;27;20754;-82
2021/03/12 01:07:07;;;;;;;1.77;0.60;;;9.40;99.90;;;;;;5118789;27;20455;-81
2021/03/12 01:09:54;;;;;;;2.97;0.70;;;9.50;99.90;;;;;;5117259;27;20471;-79
2021/03/12 01:12:47;;;;;;;0.97;0.70;;;9.50;99.90;;;;;;5128219;27;20983;-86
2021/03/12 01:15:35;;;;;;;0.60;0.60;;;9.30;99.90;;;;;;5119879;27;20443;-81
2021/03/12 01:18:23;;;;;;;0.57;0.50;;;9.30;99.90;;;;;;5120958;27;21019;-85
2021/03/12 01:21:10;;;;;;;1.60;0.70;;;9.40;99.90;;;;;;5122065;27;20457;-81
2021/03/12 01:23:59;;;;;;;0.60;0.60;;;9.30;99.90;;;;;;5123879;27;20465;-81
2021/03/12 01:26:46;;;;;;;3.10;0.73;;;9.30;99.90;;;;;;5125790;27;20477;-81
2021/03/12 01:29:34;;;;;;;3.00;0.70;;;9.30;99.90;;;;;;5123128;27;20475;-82
2021/03/12 01:32:22;;;;;;;1.40;0.60;;;9.50;99.90;;;;;;5120000;27;20457;-83
2021/03/12 01:35:11;;;;;;;1.83;0.60;;;9.50;99.90;;;;;;5123530;27;20472;-82
2021/03/12 01:37:59;;;;;;;0.90;0.80;;;9.50;99.90;;;;;;5125252;27;21057;-83
2021/03/12 01:40:49;;;;;;;1.37;0.70;;;9.70;99.90;;;;;;5123563;27;20466;-80
2021/03/12 01:43:36;;;;;;;1.60;0.53;;;9.70;99.90;;;;;;5129740;28;20506;-80
2021/03/12 01:46:24;;;;;;;1.57;0.70;;;9.70;99.90;;;;;;5123513;27;20470;-84
2021/03/12 01:49:12;;;;;;;0.83;0.60;;;9.80;99.90;;;;;;5121812;28;20473;-81
2021/03/12 01:51:59;;;;;;;3.00;1.10;;;9.90;99.90;;;;;;5123140;28;20478;-81
2021/03/12 01:54:47;;;;;;;3.30;0.77;;;10.00;99.90;;;;;;5120886;28;20476;-80
2021/03/12 01:57:36;;;;;;;2.60;0.87;;;9.90;99.90;;;;;;5128239;27;20520;-80
2021/03/12 02:00:24;;;;;;;0.80;0.67;;;9.90;99.90;;;;;;5123279;28;21228;-82
2021/03/12 02:03:14;;;;;;;1.23;0.73;;;9.90;99.90;;;;;;5112106;28;20457;-82
2021/03/12 02:06:01;;;;;;;1.27;0.70;;;9.90;99.90;;;;;;5121891;28;20469;-81
2021/03/12 02:08:49;;;;;;;0.70;0.70;;;9.90;99.90;;;;;;5117507;28;20511;-83
2021/03/12 02:11:37;;;;;;;1.73;0.80;;;9.90;99.90;;;;;;5126652;28;20506;-81
2021/03/12 02:14:33;;;;;;;1.00;0.60;;;9.80;99.90;;;;;;5129808;28;20491;-80
2021/03/12 02:17:25;;;;;;;1.70;0.80;;;9.80;99.90;;;;;;5124593;28;20989;-79
2021/03/12 02:20:39;;;;;;;1.43;0.70;;;9.80;99.90;;;;;;5118302;28;20434;-82
2021/03/12 02:23:46;;;;;;;1.90;1.37;;;9.90;99.90;;;;;;5111803;28;20466;-80
2021/03/12 02:27:06;;;;;;;1.13;0.77;;;9.80;99.90;;;;;;5117797;28;20470;-85
2021/03/12 02:29:55;;;;;;;0.80;0.60;;;9.60;99.90;;;;;;5121882;27;20459;-81
2021/03/12 02:32:47;;;;;;;2.43;0.63;;;9.50;99.90;;;;;;5129108;27;20509;-82
2021/03/12 02:35:36;;;;;;;1.80;0.60;;;9.50;99.90;;;;;;5124519;27;20629;-80
2021/03/12 02:38:27;;;;;;;1.77;0.80;;;9.50;99.90;;;;;;5120655;27;20503;-84
2021/03/12 02:41:15;;;;;;;2.00;0.73;;;9.50;99.90;;;;;;5119986;27;20454;-80
2021/03/12 02:44:07;;;;;;;0.70;0.70;;;9.50;99.90;;;;;;5133286;27;20470;-79
2021/03/12 02:46:58;;;;;;;2.10;0.70;;;9.40;99.90;;;;;;5128825;27;20465;-81
2021/03/12 02:49:47;;;;;;;2.13;0.60;;;9.50;99.90;;;;;;5120532;27;20465;-80
2021/03/12 02:52:35;;;;;;;1.17;0.70;;;9.30;99.90;;;;;;5130543;27;20529;-79
2021/03/12 02:55:23;;;;;;;0.90;0.70;;;9.30;99.90;;;;;;5124925;27;20968;-81
2021/03/12 02:58:11;;;;;;;0.80;0.63;;;9.00;99.90;;;;;;5124826;27;20484;-83
2021/03/12 03:01:03;;;;;;;2.70;0.70;;;9.10;99.90;;;;;;5121156;27;20492;-83
2021/03/12 03:03:52;;;;;;;4.40;0.87;;;9.10;99.90;;;;;;5121585;27;20478;-84
2021/03/12 03:06:40;;;;;;;0.80;0.60;;;9.10;99.90;;;;;;5118736;27;20508;-81
2021/03/12 03:09:29;;;;;;;2.90;0.70;;;9.30;99.90;;;;;;5119853;27;20513;-82
2021/03/12 03:12:20;;;;;;;1.77;0.80;;;9.10;99.90;;;;;;5124629;27;20451;-82
2021/03/12 03:15:08;;;;;;;2.70;0.80;;;9.10;99.90;;;;;;5121377;27;20456;-83
2021/03/12 03:17:57;;;;;;;1.07;0.50;;;8.90;99.90;;;;;;5120488;27;21080;-80
2021/03/12 03:20:45;;;;;;;2.43;0.70;;;8.90;99.90;;;;;;5130202;27;21006;-79
2021/03/12 03:23:36;;;;;;;0.70;0.50;;;8.80;99.90;;;;;;5127215;27;20494;-79
2021/03/12 03:26:24;;;;;;;3.40;0.70;;;8.80;99.90;;;;;;5122537;27;20460;-82
2021/03/12 03:29:11;;;;;;;1.70;0.70;;;8.80;99.90;;;;;;5120905;27;22576;-83
2021/03/12 03:31:59;;;;;;;1.60;0.70;;;8.70;99.90;;;;;;5121165;27;20476;-81
2021/03/12 03:34:48;;;;;;;0.97;0.63;;;8.60;99.90;;;;;;5124887;27;20950;-85
2021/03/12 03:37:36;;;;;;;1.53;0.60;;;8.80;99.90;;;;;;5118333;27;20473;-83
2021/03/12 03:40:25;;;;;;;0.67;0.60;;;9.00;99.90;;;;;;5122694;27;20445;-85
2021/03/12 03:43:14;;;;;;;1.93;1.10;;;9.10;99.90;;;;;;5131541;27;20443;-82
2021/03/12 03:46:04;;;;;;;1.23;0.80;;;9.10;99.90;;;;;;5114784;28;20433;-81
2021/03/12 03:48:52;;;;;;;2.23;0.60;;;9.20;99.90;;;;;;5123172;27;20487;-80
2021/03/12 03:51:42;;;;;;;0.80;0.60;;;9.40;99.90;;;;;;5116431;27;20464;-81
2021/03/12 03:54:30;;;;;;;1.03;0.60;;;9.20;99.90;;;;;;5120415;27;20451;-82
2021/03/12 03:57:20;;;;;;;2.10;0.70;;;9.20;99.90;;;;;;5120534;27;21524;-85
2021/03/12 04:00:10;;;;;;;0.97;0.67;;;9.10;99.90;;;;;;5119790;27;20462;-82
2021/03/12 04:02:59;;;;;;;0.77;0.70;;;9.00;99.90;;;;;;5121268;27;21174;-84
2021/03/12 04:05:47;;;;;;;2.93;0.67;;;9.10;99.90;;;;;;5132724;27;20462;-86
2021/03/12 04:08:37;;;;;;;2.50;0.70;;;9.30;99.90;;;;;;5126568;27;20511;-80
2021/03/12 04:11:24;;;;;;;1.17;0.60;;;9.40;99.90;;;;;;5122538;27;20514;-81
2021/03/12 04:14:13;;;;;;;0.80;0.70;;;9.80;99.90;;;;;;5121647;27;20457;-82
2021/03/12 04:17:01;;;;;;;3.37;0.80;;;9.50;99.90;;;;;;5134952;27;20529;-82
2021/03/12 04:19:50;;;;;;;1.20;0.73;;;9.60;99.90;;;;;;5120600;27;20460;-83
2021/03/12 04:22:38;;;;;;;1.47;0.70;;;9.40;99.90;;;;;;5124016;27;20460;-80
2021/03/12 04:25:27;;;;;;;1.20;0.80;;;9.30;99.90;;;;;;5133316;27;20482;-82
2021/03/12 04:28:14;;;;;;;1.57;0.60;;;9.20;99.90;;;;;;5130362;27;20499;-81
2021/03/12 04:31:02;;;;;;;6.10;0.73;;;9.30;99.90;;;;;;5134655;27;20482;-85
2021/03/12 04:33:50;;;;;;;3.90;0.87;;;9.20;99.90;;;;;;5127814;27;20464;-83
2021/03/12 04:36:39;;;;;;;3.23;0.70;;;9.10;99.90;;;;;;5134565;27;20456;-79
2021/03/12 04:39:27;;;;;;;1.27;0.60;;;9.10;99.90;;;;;;5128893;27;20463;-83
2021/03/12 04:42:16;;;;;;;1.57;0.60;;;9.00;99.90;;;;;;5130326;27;20460;-82
2021/03/12 04:45:23;;;;;;;1.17;0.70;;;9.20;99.90;;;;;;5129169;27;20482;-79
2021/03/12 04:48:11;;;;;;;2.67;1.23;;;9.20;99.90;;;;;;5125183;27;20512;-81
2021/03/12 04:50:58;;;;;;;2.13;0.70;;;9.30;99.90;;;;;;5115564;27;20454;-79
2021/03/12 04:53:46;;;;;;;3.70;0.83;;;9.30;99.90;;;;;;5116300;27;20508;-81
2021/03/12 04:56:34;;;;;;;1.50;0.70;;;9.20;99.90;;;;;;5118946;27;20464;-84
2021/03/12 04:59:22;;;;;;;4.63;1.23;;;9.20;99.90;;;;;;5121188;27;21304;-81
2021/03/12 05:02:12;;;;;;;1.57;0.97;;;9.00;98.00;;;;;;5119635;27;20999;-82
2021/03/12 05:05:00;;;;;;;1.30;0.80;;;8.90;99.30;;;;;;5117230;27;20959;-80
2021/03/12 05:07:47;;;;;;;2.90;0.90;;;8.90;99.90;;;;;;5117070;27;20469;-82
2021/03/12 05:10:35;;;;;;;3.30;0.77;;;8.90;99.90;;;;;;5118882;27;20463;-79
2021/03/12 05:13:23;;;;;;;3.00;0.70;;;9.00;99.90;;;;;;5129998;27;20832;-79
2021/03/12 05:16:11;;;;;;;3.53;0.80;;;9.00;99.90;;;;;;5128304;27;20485;-84
2021/03/12 05:18:59;;;;;;;2.93;0.60;;;9.00;99.90;;;;;;5120007;27;21015;-80
2021/03/12 05:21:47;;;;;;;1.30;0.70;;;8.80;99.80;;;;;;5119596;27;20483;-79
2021/03/12 05:24:34;;;;;;;2.07;1.83;;;8.80;99.90;;;;;;5121223;27;20487;-80
2021/03/12 05:27:22;;;;;;;1.10;0.90;;;8.90;99.90;;;;;;5117057;27;21079;-82
2021/03/12 05:30:10;;;;;;;2.47;0.90;;;9.00;99.90;;;;;;5123846;27;20457;-83
2021/03/12 05:32:59;;;;;;;0.87;0.70;;;8.80;99.90;;;;;;5131718;27;20451;-81
2021/03/12 05:35:47;;;;;;;1.60;0.87;;;8.90;99.90;;;;;;5123588;27;20457;-81
2021/03/12 05:38:34;;;;;;;2.47;0.80;;;8.70;99.90;;;;;;5128707;27;20873;-81
2021/03/12 05:41:22;;;;;;;2.50;0.70;;;8.90;99.90;;;;;;5123662;27;20457;-81
2021/03/12 05:44:09;;;;;;;2.60;0.70;;;8.70;99.90;;;;;;5130584;27;20510;-80
2021/03/12 05:46:57;;;;;;;3.87;0.70;;;8.60;99.90;;;;;;5133707;28;20462;-81
2021/03/12 05:49:46;;;;;;;0.90;0.50;;;8.70;99.90;;;;;;5123555;27;20461;-82
2021/03/12 05:52:34;;;;;;;1.90;0.53;;;8.50;99.90;;;;;;5120282;28;20452;-81
2021/03/12 05:55:21;;;;;;;1.17;1.07;;;8.40;99.90;;;;;;5130857;28;20451;-80
2021/03/12 05:58:09;;;;;;;5.23;1.90;;;8.30;99.90;;;;;;5129800;27;20505;-79
2021/03/12 06:00:59;;;;;;;5.23;0.80;;;8.30;99.90;;;;;;5114979;28;20462;-78
2021/03/12 06:03:46;;;;;;;3.20;1.33;;;8.30;99.90;;;;;;5120238;27;20806;-80
2021/03/12 06:06:36;;;;;;;1.73;0.67;;;8.30;99.90;;;;;;5120575;27;20453;-81
2021/03/12 06:09:24;;;;;;;3.77;0.97;;;8.30;99.90;;;;;;5120823;27;20473;-80
2021/03/12 06:12:13;;;;;;;1.37;0.70;;;8.40;99.90;;;;;;5121982;27;20456;-80
2021/03/12 06:15:01;;;;;;;1.50;0.60;;;8.40;99.90;;;;;;5121801;27;20468;-77
2021/03/12 06:17:49;;;;;;;5.90;0.60;;;8.60;99.90;;;;;;5126573;27;21091;-78
2021/03/12 06:20:37;;;;;;;3.07;1.27;;;8.40;99.90;;;;;;5123619;27;20885;-76
2021/03/12 06:23:36;;;;;;;4.17;0.80;;;8.40;99.90;;;;;;5128848;27;20467;-78
2021/03/12 06:26:24;;;;;;;2.57;0.60;;;8.20;99.90;;;;;;5114793;27;20492;-77
2021/03/12 06:29:12;;;;;;;2.93;1.03;;;8.20;99.90;;;;;;5130393;27;20468;-77
2021/03/12 06:32:01;;;;;;;2.30;0.80;;;8.20;99.90;;;;;;5127980;27;20490;-75
2021/03/12 06:35:00;;;;;;;1.00;0.90;;;8.00;99.90;;;;;;5133863;27;20549;-79
2021/03/12 06:37:48;;;;;;;1.17;0.70;;;8.20;99.90;;;;;;5122888;27;20500;-77
2021/03/12 06:40:39;;;;;;;1.57;0.60;;;8.00;99.90;;;;;;5140218;27;20431;-76
2021/03/12 06:43:26;;;;;;;0.70;0.60;;;8.00;99.90;;;;;;5131969;27;20468;-77
2021/03/12 06:46:14;;;;;;;1.00;0.70;;;8.00;99.90;;;;;;5131855;27;20853;-75
2021/03/12 06:49:02;;;;;;;1.50;0.77;;;7.90;99.90;;;;;;5126696;27;20456;-77
2021/03/12 06:52:00;;;;;;;1.80;1.00;;;8.30;99.90;;;;;;5128253;27;20466;-76
2021/03/12 06:54:53;;;;;;;1.97;0.70;;;8.20;99.90;;;;;;5118937;27;20458;-77
2021/03/12 06:57:43;;;;;;;1.47;0.80;;;8.00;99.90;;;;;;5132766;27;20465;-76
2021/03/12 07:00:32;;;;;;;0.73;0.60;;;8.30;99.90;;;;;;5126827;27;20452;-76
2021/03/12 07:03:26;;;;;;;2.93;0.60;;;8.10;99.90;;;;;;5122906;27;20423;-78
2021/03/12 07:06:16;;;;;;;1.53;0.80;;;7.80;99.90;;;;;;5125068;27;20860;-78
2021/03/12 07:09:07;;;;;;;1.03;0.90;;;7.60;99.90;;;;;;5125905;27;21069;-78
2021/03/12 07:11:56;;;;;;;1.93;0.73;;;7.80;99.90;;;;;;5124997;27;20519;-76
2021/03/12 07:14:44;;;;;;;1.00;0.70;;;8.00;99.90;;;;;;5118084;27;20449;-76
2021/03/12 07:17:33;;;;;;;0.90;0.60;;;8.00;99.90;;;;;;5124647;27;20473;-77
2021/03/12 07:20:22;;;;;;;1.87;0.73;;;8.30;99.90;;;;;;5132507;27;20530;-77
2021/03/12 07:23:11;;;;;;;0.80;0.60;;;8.20;99.90;;;;;;5115408;27;20451;-76
2021/03/12 07:25:59;;;;;;;1.77;0.63;;;8.20;99.90;;;;;;5128761;27;20566;-75
2021/03/12 07:28:47;;;;;;;1.73;1.43;;;8.40;99.90;;;;;;5123317;27;20487;-76
2021/03/12 07:31:38;;;;;;;1.00;0.60;;;8.30;99.90;;;;;;5128097;27;20452;-76
2021/03/12 07:34:31;;;;;;;2.73;0.80;;;8.40;99.90;;;;;;5124956;27;20452;-75
2021/03/12 07:37:19;;;;;;;0.73;0.70;;;8.50;99.90;;;;;;5128870;27;20491;-79
2021/03/12 07:40:10;;;;;;;2.10;0.70;;;8.30;99.90;;;;;;5123614;27;20431;-76
2021/03/12 07:42:59;;;;;;;1.23;0.77;;;8.50;99.90;;;;;;5135645;27;20485;-77
2021/03/12 07:45:47;;;;;;;1.40;0.87;;;8.70;99.90;;;;;;5135546;27;20495;-76
2021/03/12 07:48:37;;;;;;;1.80;0.90;;;9.00;99.90;;;;;;5124140;27;20995;-78
2021/03/12 07:51:24;;;;;;;0.73;0.57;;;9.00;99.90;;;;;;5131184;27;20458;-78
2021/03/12 07:54:12;;;;;;;1.53;0.60;;;9.00;99.90;;;;;;5122803;27;20467;-76
2021/03/12 07:57:00;;;;;;;1.10;0.80;;;9.00;99.90;;;;;;5119663;27;20458;-77
2021/03/12 08:00:01;;;;;;;1.73;0.80;;;9.30;99.90;;;;;;5124976;27;20459;-76
2021/03/12 08:02:59;;;;;;;1.63;0.87;;;9.80;99.90;;;;;;5123246;27;20451;-78
2021/03/12 08:05:47;;;;;;;1.67;0.97;;;9.90;99.90;;;;;;5125376;27;20711;-78
2021/03/12 08:08:36;;;;;;;0.90;0.60;;;10.40;99.90;;;;;;5128479;27;20482;-75
2021/03/12 08:11:27;;;;;;;0.70;0.63;;;10.60;99.90;;;;;;5128110;27;20450;-77
2021/03/12 08:14:20;;;;;;;0.90;0.83;;;11.00;99.90;;;;;;5128504;27;20476;-77
2021/03/12 08:17:19;;;;;;;1.70;0.60;;;11.40;99.90;;;;;;5125840;27;20451;-80
2021/03/12 08:20:28;;;;;;;1.70;0.87;;;11.70;99.90;;;;;;5129368;27;20460;-78
2021/03/12 08:23:32;;;;;;;1.03;1.03;;;11.90;99.90;;;;;;5126399;27;20451;-76
2021/03/12 08:26:50;;;;;;;0.70;0.60;;;12.00;99.90;;;;;;5126295;27;20496;-77
2021/03/12 08:29:39;;;;;;;0.73;0.63;;;12.30;99.90;;;;;;5124286;27;20536;-77
2021/03/12 08:32:42;;;;;;;0.60;0.60;;;12.20;99.90;;;;;;5127126;27;20453;-76
2021/03/12 08:35:39;;;;;;;1.40;0.60;;;12.20;99.90;;;;;;5129628;27;20442;-78
2021/03/12 08:38:43;;;;;;;1.10;0.60;;;12.40;99.90;;;;;;5132826;27;20456;-77
2021/03/12 08:41:40;;;;;;;0.70;0.70;;;12.40;99.90;;;;;;5127440;27;20451;-76
2021/03/12 08:44:28;;;;;;;1.80;0.70;;;11.90;98.80;;;;;;5128556;27;21202;-77
2021/03/12 08:47:18;;;;;;;1.70;0.70;;;11.80;97.50;;;;;;5120979;27;20478;-75
2021/03/12 08:50:06;;;;;;;2.43;0.80;;;11.20;95.80;;;;;;5124606;27;20423;-77
2021/03/12 08:52:54;;;;;;;1.67;0.70;;;11.00;95.40;;;;;;5121279;27;20457;-77
2021/03/12 08:55:45;;;;;;;1.43;0.70;;;11.00;96.20;;;;;;5124842;27;20535;-77
2021/03/12 08:58:34;;;;;;;1.10;0.80;;;11.40;97.10;;;;;;5129570;27;20536;-76
2021/03/12 09:01:26;;;;;;;0.83;0.70;;;11.90;96.40;;;;;;5129256;27;21087;-78
2021/03/12 09:04:13;;;;;;;2.37;1.00;;;12.50;96.90;;;;;;5129080;27;20429;-78
2021/03/12 09:07:01;;;;;;;1.93;0.70;;;12.60;92.50;;;;;;5108563;28;20442;-76
2021/03/12 09:09:49;;;;;;;2.40;0.67;;;12.60;89.50;;;;;;5128579;27;20448;-80
2021/03/12 09:12:38;;;;;;;2.67;0.80;;;12.50;89.00;;;;;;5129409;27;20476;-78
2021/03/12 09:15:27;;;;;;;1.87;0.60;;;12.20;83.10;;;;;;5129182;27;20418;-77
2021/03/12 09:18:28;;;;;;;2.10;0.80;;;12.00;81.00;;;;;;5129978;27;20447;-77
2021/03/12 09:21:18;;;;;;;0.90;0.70;;;11.60;80.70;;;;;;5129766;27;20487;-77
2021/03/12 09:24:06;;;;;;;1.27;0.63;;;11.90;82.30;;;;;;5117398;27;20954;-78
2021/03/12 09:26:53;;;;;;;1.70;0.70;;;11.80;79.70;;;;;;5121791;27;20507;-80
2021/03/12 09:29:45;;;;;;;1.47;0.80;;;11.60;80.20;;;;;;5125305;27;20527;-75
2021/03/12 09:32:40;;;;;;;1.23;0.63;;;11.40;76.20;;;;;;5125791;27;20440;-76
2021/03/12 09:35:28;;;;;;;1.90;1.03;;;11.00;73.40;;;;;;5120549;27;20996;-80
2021/03/12 09:38:31;;;;;;;1.53;0.60;;;10.80;77.20;;;;;;5114048;27;20988;-77
2021/03/12 09:41:20;;;;;;;1.57;0.60;;;11.00;76.60;;;;;;5125632;27;20488;-78
2021/03/12 09:44:09;;;;;;;2.03;0.97;;;11.30;80.60;;;;;;5126125;27;21228;-75
2021/03/12 09:46:59;;;;;;;2.17;0.90;;;11.40;82.90;;;;;;5130142;27;20446;-74
2021/03/12 09:49:50;;;;;;;2.70;1.13;;;11.20;79.90;;;;;;5127507;27;20527;-76
2021/03/12 09:52:39;;;;;;;3.60;1.07;;;11.30;87.50;;;;;;5132238;27;20506;-76
2021/03/12 09:55:27;;;;;;;1.07;0.73;;;11.40;85.40;;;;;;5129358;28;20438;-77
2021/03/12 09:58:15;;;;;;;1.33;0.60;;;11.40;81.30;;;;;;5124034;27;20471;-77
2021/03/12 10:01:13;;;;;;;2.43;0.90;;;11.50;82.30;;;;;;5125087;27;20470;-75
2021/03/12 10:04:01;;;;;;;0.77;0.63;;;11.60;84.70;;;;;;5119063;28;20436;-75
2021/03/12 10:06:58;;;;;;;4.63;0.80;;;11.30;85.40;;;;;;5114921;28;21060;-79
2021/03/12 10:09:47;;;;;;;3.20;0.90;;;11.00;92.90;;;;;;5109624;28;20439;-78
2021/03/12 10:12:40;;;;;;;1.90;0.80;;;10.50;99.90;;;;;;5128241;28;20862;-76
2021/03/12 10:15:48;;;;;;;2.33;0.70;;;10.10;99.90;;;;;;5128639;28;20435;-76
2021/03/12 10:18:35;;;;;;;0.77;0.77;;;10.40;99.90;;;;;;5125405;27;20461;-78
2021/03/12 10:21:37;;;;;;;2.97;1.27;;;10.80;99.90;;;;;;5126987;27;20457;-78
2021/03/12 10:24:27;;;;;;;2.97;1.70;;;11.50;99.90;;;;;;5118733;27;20460;-78
2021/03/12 10:27:19;;;;;;;2.93;0.83;;;12.20;99.90;;;;;;5123800;27;20476;-78
2021/03/12 10:30:12;;;;;;;0.87;0.60;;;12.70;99.90;;;;;;5118293;27;20962;-78
2021/03/12 10:33:05;;;;;;;1.07;0.70;;;12.90;99.90;;;;;;5128945;27;20435;-75
2021/03/12 10:35:54;;;;;;;1.53;0.60;;;13.40;99.90;;;;;;5110810;28;20437;-78
2021/03/12 10:38:46;;;;;;;2.00;0.80;;;13.60;99.90;;;;;;5121383;28;20457;-76
2021/03/12 10:41:34;;;;;;;3.00;0.80;;;13.60;99.90;;;;;;5110789;28;20453;-76
2021/03/12 10:44:23;;;;;;;1.90;0.70;;;13.60;99.90;;;;;;5127995;27;20453;-77
2021/03/12 10:47:11;;;;;;;1.47;0.70;;;13.90;99.90;;;;;;5118993;27;20504;-78
2021/03/12 10:50:19;;;;;;;3.40;0.80;;;14.50;99.90;;;;;;5127906;27;20950;-77
2021/03/12 10:53:10;;;;;;;1.40;0.80;;;14.90;99.90;;;;;;5131195;27;20487;-76
2021/03/12 10:56:04;;;;;;;1.43;1.00;;;15.40;99.90;;;;;;5127592;27;20429;-77
2021/03/12 10:58:53;;;;;;;1.03;0.80;;;16.00;99.90;;;;;;5130002;27;20714;-76
2021/03/12 11:01:45;;;;;;;0.63;0.60;;;16.40;99.90;;;;;;5112002;27;20919;-75
2021/03/12 11:04:33;;;;;;;0.50;0.50;;;16.70;99.80;;;;;;5131055;27;21247;-78
2021/03/12 11:07:20;;;;;;;1.60;0.80;;;17.00;99.90;;;;;;5137358;27;20470;-77
2021/03/12 11:10:09;;;;;;;4.20;1.07;;;17.20;95.40;;;;;;5118569;27;20436;-80
2021/03/12 11:12:57;;;;;;;0.87;0.70;;;17.00;91.10;;;;;;5117555;27;20455;-76
2021/03/12 11:15:45;;;;;;;0.93;0.70;;;17.10;90.90;;;;;;5128564;27;20439;-79
2021/03/12 11:18:33;;;;;;;1.20;0.70;;;16.90;85.30;;;;;;5122340;27;20457;-78
2021/03/12 11:21:21;;;;;;;2.30;0.70;;;16.70;80.80;;;;;;5128938;27;20432;-78
2021/03/12 11:24:09;;;;;;;1.00;0.90;;;16.70;78.80;;;;;;5132150;27;20443;-78
2021/03/12 11:26:58;;;;;;;0.90;0.80;;;16.90;75.20;;;;;;5130106;27;20474;-78
2021/03/12 11:29:46;;;;;;;1.80;0.80;;;17.10;75.60;;;;;;5127067;27;20421;-77
2021/03/12 11:32:34;;;;;;;0.83;0.73;;;17.50;80.00;;;;;;5122942;27;21024;-78
2021/03/12 11:35:23;;;;;;;0.80;0.70;;;17.20;72.40;;;;;;5130406;27;20436;-78
2021/03/12 11:38:10;;;;;;;2.73;0.80;;;17.20;74.50;;;;;;5112670;27;20586;-78
2021/03/12 11:40:58;;;;;;;2.37;0.80;;;16.90;58.70;;;;;;5130816;27;20440;-77
2021/03/12 11:43:46;;;;;;;1.20;0.90;;;16.10;48.60;;;;;;5131491;27;20928;-77
2021/03/12 11:46:34;;;;;;;1.40;0.60;;;15.40;42.10;;;;;;5131766;27;20476;-77
2021/03/12 11:49:25;;;;;;;1.03;0.90;;;15.00;35.90;;;;;;5130719;27;21171;-78
2021/03/12 11:52:13;;;;;;;0.83;0.67;;;14.70;35.10;;;;;;5131464;27;20445;-76
2021/03/12 11:55:01;;;;;;;6.53;0.97;;;14.70;35.30;;;;;;5123189;27;20444;-77
2021/03/12 11:57:48;;;;;;;0.70;0.50;;;13.70;25.10;;;;;;5129791;27;20487;-79
2021/03/12 12:00:36;;;;;;;0.80;0.80;;;13.30;23.90;;;;;;5127667;27;20445;-75
2021/03/12 12:03:26;;;;;;;1.83;0.90;;;13.40;27.80;;;;;;5128846;27;20431;-77
2021/03/12 12:06:13;;;;;;;0.57;0.57;;;13.40;28.40;;;;;;5127470;27;20461;-76
2021/03/12 12:09:02;;;;;;;1.73;0.70;;;13.60;44.20;;;;;;5117634;27;20990;-78
2021/03/12 12:11:49;;;;;;;3.17;0.77;;;13.50;29.70;;;;;;5130673;27;20441;-79
2021/03/12 12:14:36;;;;;;;2.37;0.80;;;13.40;30.90;;;;;;5131054;27;20424;-78
2021/03/12 12:17:24;;;;;;;2.77;0.77;;;13.60;35.10;;;;;;5133599;27;20461;-79
2021/03/12 12:20:14;;;;;;;0.80;0.80;;;13.90;34.60;;;;;;5119252;27;20956;-78
2021/03/12 12:23:02;;;;;;;1.20;0.70;;;14.00;32.60;;;;;;5130680;27;20592;-77
2021/03/12 12:25:49;;;;;;;1.00;0.57;;;13.80;32.10;;;;;;5118288;27;20468;-79
2021/03/12 12:28:37;;;;;;;1.80;0.60;;;13.50;31.60;;;;;;5121749;27;20967;-79
2021/03/12 12:31:25;;;;;;;1.73;0.80;;;13.50;32.50;;;;;;5121033;27;20572;-80
2021/03/12 12:34:12;;;;;;;0.83;0.70;;;13.40;31.90;;;;;;5122645;27;20461;-76
2021/03/12 12:37:01;;;;;;;1.40;0.77;;;13.10;29.80;;;;;;5127073;27;20429;-74
2021/03/12 12:39:48;;;;;;;1.10;0.50;;;12.90;29.80;;;;;;5127389;27;20800;-74
2021/03/12 12:42:36;;;;;;;1.40;0.60;;;13.10;31.50;;;;;;5125256;27;20446;-76
2021/03/12 12:45:24;;;;;;;1.80;0.80;;;12.90;28.10;;;;;;5125974;27;20487;-76
2021/03/12 12:48:11;;;;;;;0.80;0.50;;;13.10;31.50;;;;;;5119240;27;20450;-76
2021/03/12 12:51:00;;;;;;;3.30;0.57;;;13.00;26.90;;;;;;5114297;27;20507;-80
2021/03/12 12:53:48;;;;;;;0.93;0.77;;;13.00;26.90;;;;;;5122215;27;20462;-76
2021/03/12 12:56:35;;;;;;;1.10;0.80;;;12.90;21.60;;;;;;5120592;27;20441;-78
2021/03/12 12:59:23;;;;;;;1.70;0.60;;;12.90;22.60;;;;;;5119105;27;20446;-77
2021/03/12 13:02:10;;;;;;;2.73;0.63;;;12.80;21.10;;;;;;5129155;27;20946;-77
2021/03/12 13:04:59;;;;;;;1.03;0.70;;;12.90;21.00;;;;;;5120620;27;20446;-77
2021/03/12 13:07:47;;;;;;;1.00;0.70;;;13.00;21.40;;;;;;5117698;27;20573;-80
2021/03/12 13:10:36;;;;;;;2.57;0.87;;;13.00;21.50;;;;;;5126298;27;20450;-79
2021/03/12 13:13:23;;;;;;;2.70;0.77;;;12.80;19.70;;;;;;5121742;27;20536;-77
2021/03/12 13:16:13;;;;;;;1.03;0.70;;;12.70;20.50;;;;;;5123666;27;20448;-78
2021/03/12 13:19:01;;;;;;;2.57;0.80;;;12.80;20.60;;;;;;5122750;27;20481;-76
2021/03/12 13:22:02;;;;;;;1.70;0.70;;;12.80;21.20;;;;;;5120799;27;20433;-75
2021/03/12 13:24:49;;;;;;;2.00;0.80;;;13.00;23.20;;;;;;5119079;27;20497;-77
2021/03/12 13:27:38;;;;;;;0.97;0.63;;;13.00;22.60;;;;;;5123803;27;20461;-81
2021/03/12 13:30:25;;;;;;;2.27;0.80;;;13.20;23.00;;;;;;5124959;27;20448;-79
2021/03/12 13:33:13;;;;;;;2.00;0.97;;;13.00;19.90;;;;;;5126187;27;20471;-79
2021/03/12 13:36:01;;;;;;;1.33;0.73;;;12.90;19.30;;;;;;5135391;27;20422;-77
2021/03/12 13:38:48;;;;;;;1.47;0.60;;;12.80;15.90;;;;;;5116844;27;20491;-78
2021/03/12 13:41:36;;;;;;;3.27;0.70;;;13.00;18.50;;;;;;5127300;27;20434;-79
2021/03/12 13:44:25;;;;;;;1.73;0.97;;;12.90;16.10;;;;;;5117625;27;20460;-80
2021/03/12 13:47:13;;;;;;;3.37;0.90;;;12.90;26.70;;;;;;5122364;27;20537;-81
2021/03/12 13:50:01;;;;;;;1.17;0.73;;;12.70;13.80;;;;;;5127653;27;20528;-79
2021/03/12 13:52:49;;;;;;;1.90;0.80;;;12.60;13.10;;;;;;5120839;28;20447;-77
2021/03/12 13:55:36;;;;;;;1.63;0.70;;;12.80;15.90;;;;;;5117539;28;20438;-78
2021/03/12 13:58:24;;;;;;;1.20;0.70;;;12.80;15.10;;;;;;5123848;27;20468;-75
2021/03/12 14:01:12;;;;;;;1.13;0.70;;;12.90;14.90;;;;;;5112543;27;20871;-76
2021/03/12 14:04:00;;;;;;;1.93;1.10;;;12.80;12.70;;;;;;5110720;27;20454;-75
2021/03/12 14:06:47;;;;;;;1.73;0.80;;;12.80;13.30;;;;;;5121670;28;20477;-75
2021/03/12 14:09:35;;;;;;;1.27;0.80;;;13.00;15.60;;;;;;5124884;27;20491;-76
2021/03/12 14:12:24;;;;;;;1.97;0.73;;;12.90;13.90;;;;;;5126949;27;20471;-75
2021/03/12 14:15:13;;;;;;;5.17;1.00;;;12.70;13.10;;;;;;5115769;27;20774;-79
2021/03/12 14:18:02;;;;;;;1.53;0.60;;;12.40;10.40;;;;;;5112099;27;20458;-78
2021/03/12 14:20:51;;;;;;;1.63;1.03;;;12.30;10.80;;;;;;5105022;27;20445;-78
2021/03/12 14:23:39;;;;;;;3.13;0.87;;;12.60;13.00;;;;;;5110831;28;20450;-80
2021/03/12 14:26:27;;;;;;;3.80;1.03;;;12.70;13.80;;;;;;5122550;27;20467;-78
2021/03/12 14:29:15;;;;;;;1.97;0.80;;;12.40;10.20;;;;;;5130067;27;20455;-79
2021/03/12 14:32:02;;;;;;;0.97;0.80;;;12.20;10.20;;;;;;5129192;27;20782;-78
2021/03/12 14:34:57;;;;;;;2.10;0.80;;;12.50;13.00;;;;;;5122461;27;20890;-78
2021/03/12 14:37:45;;;;;;;0.70;0.70;;;12.70;14.80;;;;;;5121794;27;21072;-78
2021/03/12 14:40:33;;;;;;;4.60;1.03;;;12.70;15.70;;;;;;5126666;27;20460;-77
2021/03/12 14:43:20;;;;;;;1.40;0.70;;;12.70;16.90;;;;;;5132869;27;20438;-79
2021/03/12 14:46:07;;;;;;;4.73;0.90;;;12.50;17.80;;;;;;5127473;27;20463;-78
2021/03/12 14:48:55;;;;;;;1.93;1.00;;;12.40;23.70;;;;;;5131980;27;20458;-80
2021/03/12 14:51:43;;;;;;;2.37;0.90;;;12.10;26.80;;;;;;5128087;27;20438;-79